Time;durP1;ratioP1;P1;durP2;ratioP2;P2;SDS_P1;SDS_P2;PMS_P1;PMS_P2;Temp;Humidity;BMP_temperature;BMP_pressure;BME280_temperature;BME280_humidity;BME280_pressure;Samples;Min_cycle;Max_cycle;Signal;HPM_P1;HPM_P2
2023/01/17 00:01:12;;;;;;;0.97;0.70;;;3.90;99.90;;;;;;5048199;28;20029;-59
2023/01/17 00:11:57;;;;;;;0.50;0.30;;;3.90;99.90;;;;;;5041256;28;20080;-60
2023/01/17 00:14:23;;;;;;;1.48;0.40;;;3.90;99.90;;;;;;5044624;28;20041;-60
2023/01/17 00:16:48;;;;;;;2.00;0.80;;;3.90;99.90;;;;;;5046913;28;20564;-61
2023/01/17 01:33:46;;;;;;;3.63;0.43;;;3.80;99.90;;;;;;5051406;28;20080;-60
2023/01/17 01:36:12;;;;;;;3.15;0.13;;;3.80;99.90;;;;;;5052459;28;20490;-60
2023/01/17 01:38:38;;;;;;;1.03;0.10;;;3.70;99.90;;;;;;5051579;28;20112;-58
2023/01/17 01:41:04;;;;;;;1.67;0.13;;;3.70;99.90;;;;;;5052371;28;20037;-60
2023/01/17 01:43:51;;;;;;;1.70;0.90;;;3.60;99.90;;;;;;5051079;28;20495;-59
2023/01/17 01:46:27;;;;;;;0.85;0.20;;;3.60;99.90;;;;;;5052335;28;20045;-60
2023/01/17 01:49:00;;;;;;;0.35;0.13;;;3.60;99.90;;;;;;5051101;28;20041;-60
2023/01/17 01:51:38;;;;;;;1.50;0.20;;;3.50;99.90;;;;;;5051037;28;20037;-58
2023/01/17 01:54:06;;;;;;;;;;;3.50;99.90;;;;;;5051424;28;20390;-58
2023/01/17 01:56:32;;;;;;;1.98;0.73;;;3.40;99.90;;;;;;5051742;28;19920;-59
2023/01/17 01:59:00;;;;;;;0.60;0.10;;;3.40;99.90;;;;;;5051397;28;20128;-58
2023/01/17 02:01:26;;;;;;;4.28;0.20;;;3.40;99.90;;;;;;5051277;28;20494;-57
2023/01/17 02:03:52;;;;;;;5.75;0.20;;;3.30;99.90;;;;;;5050989;28;20040;-59
2023/01/17 02:06:37;;;;;;;4.87;0.20;;;3.30;99.90;;;;;;5034328;28;20041;-58
2023/01/17 02:09:06;;;;;;;2.40;0.45;;;3.30;99.90;;;;;;5031399;28;20284;-60
2023/01/17 02:11:34;;;;;;;1.35;0.30;;;3.30;99.90;;;;;;5036469;28;20045;-58
2023/01/17 02:14:00;;;;;;;2.55;0.50;;;3.20;99.90;;;;;;5050208;28;20045;-60
2023/01/17 02:16:49;;;;;;;6.90;0.47;;;3.20;99.90;;;;;;5050915;28;20155;-58
2023/01/17 02:19:45;;;;;;;3.90;0.30;;;3.20;99.90;;;;;;5050939;28;20036;-60
2023/01/17 02:22:16;;;;;;;1.23;0.20;;;3.20;99.90;;;;;;5041625;28;20439;-59
2023/01/17 02:25:39;;;;;;;3.65;0.20;;;3.20;99.90;;;;;;5050124;28;20041;-61
2023/01/17 02:28:28;;;;;;;3.33;0.30;;;3.20;99.90;;;;;;5025178;28;20498;-59
2023/01/17 02:31:06;;;;;;;5.10;0.30;;;3.20;99.90;;;;;;5025070;28;20045;-58
2023/01/17 02:33:45;;;;;;;3.47;0.55;;;3.20;99.90;;;;;;5046019;28;20510;-58
2023/01/17 02:36:21;;;;;;;1.80;0.20;;;3.10;99.90;;;;;;5035615;28;20041;-58
2023/01/17 02:39:04;;;;;;;1.70;0.20;;;3.10;99.90;;;;;;5030330;28;20037;-58
2023/01/17 02:41:33;;;;;;;2.33;0.20;;;3.10;99.90;;;;;;5030991;28;20514;-60
2023/01/17 02:44:01;;;;;;;2.22;0.20;;;3.00;99.90;;;;;;5029932;28;20505;-59
2023/01/17 02:46:26;;;;;;;3.30;0.25;;;3.00;99.90;;;;;;5031225;28;20037;-59
2023/01/17 02:48:54;;;;;;;2.43;0.47;;;3.00;99.90;;;;;;5050221;28;20099;-60
2023/01/17 02:51:37;;;;;;;3.90;0.60;;;2.90;99.90;;;;;;5050306;28;20040;-59
2023/01/17 02:54:28;;;;;;;4.75;0.20;;;2.90;99.90;;;;;;5049764;28;20059;-58
2023/01/17 02:57:25;;;;;;;3.15;0.20;;;2.90;99.90;;;;;;5049297;28;20155;-60
2023/01/17 03:00:15;;;;;;;3.60;0.20;;;2.80;99.90;;;;;;5050226;28;20045;-58
2023/01/17 03:03:05;;;;;;;4.55;0.35;;;2.80;99.90;;;;;;5050633;28;20090;-58
2023/01/17 03:05:43;;;;;;;1.42;0.17;;;2.80;99.90;;;;;;5050083;28;20037;-59
2023/01/17 03:08:11;;;;;;;3.88;0.40;;;2.90;99.90;;;;;;5050513;28;20083;-60
2023/01/17 03:10:38;;;;;;;1.30;0.30;;;2.90;99.90;;;;;;5050877;28;20449;-58
2023/01/17 03:13:04;;;;;;;4.85;0.30;;;2.90;99.90;;;;;;5049924;28;20079;-60
2023/01/17 03:15:30;;;;;;;2.83;0.65;;;2.90;99.90;;;;;;5050076;28;20530;-58
2023/01/17 03:17:59;;;;;;;5.53;0.63;;;2.90;99.90;;;;;;5049158;28;20486;-59
2023/01/17 03:20:26;;;;;;;1.42;0.30;;;2.80;99.90;;;;;;5049383;28;20283;-58
2023/01/17 03:22:51;;;;;;;2.47;0.20;;;2.80;99.90;;;;;;5048495;28;20060;-61
2023/01/17 03:25:17;;;;;;;3.60;0.17;;;2.90;99.90;;;;;;5049272;28;20047;-60
2023/01/17 03:27:42;;;;;;;1.07;0.30;;;2.90;99.90;;;;;;5049320;28;20064;-58
2023/01/17 03:30:09;;;;;;;3.87;0.20;;;2.80;99.90;;;;;;5048167;28;20409;-60
2023/01/17 03:32:34;;;;;;;2.90;0.22;;;2.80;99.90;;;;;;5054833;28;20033;-59
2023/01/17 03:35:00;;;;;;;5.67;1.07;;;2.80;99.90;;;;;;5038881;28;20037;-59
2023/01/17 03:37:25;;;;;;;3.20;0.30;;;2.80;99.90;;;;;;5045953;28;20047;-60
2023/01/17 03:39:51;;;;;;;1.37;0.20;;;2.80;99.90;;;;;;5050200;28;20037;-60
2023/01/17 03:42:17;;;;;;;3.37;0.43;;;2.80;99.90;;;;;;5049851;28;20037;-57
2023/01/17 03:44:42;;;;;;;2.57;0.20;;;2.80;99.90;;;;;;5048702;28;20041;-59
2023/01/17 03:47:10;;;;;;;1.93;0.23;;;2.80;99.90;;;;;;5049910;28;20084;-60
2023/01/17 03:49:37;;;;;;;2.28;0.93;;;2.70;99.90;;;;;;5049589;28;20394;-59
2023/01/17 03:52:03;;;;;;;3.45;0.17;;;2.70;99.90;;;;;;5050037;28;20056;-60
2023/01/17 03:54:29;;;;;;;1.95;0.25;;;2.70;99.90;;;;;;5047975;28;20073;-60
2023/01/17 03:56:54;;;;;;;1.93;0.20;;;2.70;99.90;;;;;;5048151;28;20079;-59
2023/01/17 03:59:20;;;;;;;2.10;0.23;;;2.70;99.90;;;;;;5049416;28;20033;-59
2023/01/17 04:01:45;;;;;;;4.73;0.30;;;2.70;99.90;;;;;;5049806;28;20041;-60
2023/01/17 04:04:11;;;;;;;1.57;0.40;;;2.70;99.90;;;;;;5048016;28;20502;-60
2023/01/17 04:06:36;;;;;;;2.83;1.07;;;2.70;99.90;;;;;;5049648;28;20044;-59
2023/01/17 04:09:02;;;;;;;3.33;0.20;;;2.60;99.90;;;;;;5049355;28;20486;-59
2023/01/17 04:11:28;;;;;;;2.00;0.40;;;2.60;99.90;;;;;;5049505;28;20406;-61
2023/01/17 04:13:54;;;;;;;0.73;0.20;;;2.60;99.90;;;;;;5048907;28;20295;-60
2023/01/17 04:16:23;;;;;;;3.50;0.30;;;2.60;99.90;;;;;;5052813;28;20048;-60
2023/01/17 04:18:48;;;;;;;2.47;0.20;;;2.60;99.90;;;;;;5052810;28;20898;-60
2023/01/17 04:21:14;;;;;;;6.17;0.43;;;2.60;99.90;;;;;;5053274;28;20112;-60
2023/01/17 04:23:40;;;;;;;2.07;0.20;;;2.50;99.90;;;;;;5052723;28;20056;-57
2023/01/17 04:26:05;;;;;;;5.47;0.80;;;2.50;99.90;;;;;;5053155;28;20041;-59
2023/01/17 04:28:31;;;;;;;2.57;1.20;;;2.50;99.90;;;;;;5053294;28;20045;-60
2023/01/17 04:30:58;;;;;;;3.90;0.30;;;2.50;99.90;;;;;;5053446;28;20045;-58
2023/01/17 04:33:23;;;;;;;3.55;0.30;;;2.40;99.90;;;;;;5050749;28;20800;-58
2023/01/17 04:35:51;;;;;;;1.20;0.70;;;2.40;99.90;;;;;;5052175;28;20044;-60
2023/01/17 04:38:16;;;;;;;4.43;0.30;;;2.40;99.90;;;;;;5051327;28;20123;-58
2023/01/17 04:40:42;;;;;;;4.20;0.50;;;2.40;99.90;;;;;;5053125;28;20108;-58
2023/01/17 04:43:07;;;;;;;5.60;0.30;;;2.30;99.90;;;;;;5051583;28;20036;-58
2023/01/17 04:45:33;;;;;;;3.03;0.30;;;2.30;99.90;;;;;;5052659;28;20406;-59
2023/01/17 04:48:05;;;;;;;8.27;0.40;;;2.30;99.90;;;;;;5041248;28;20037;-60
2023/01/17 04:50:31;;;;;;;5.20;0.70;;;2.30;99.90;;;;;;5053493;28;20117;-58
2023/01/17 04:52:58;;;;;;;3.65;0.30;;;2.30;99.90;;;;;;5051430;28;20033;-58
2023/01/17 04:55:24;;;;;;;4.43;0.55;;;2.30;99.90;;;;;;5052272;28;20080;-60
2023/01/17 04:57:50;;;;;;;1.27;0.40;;;2.30;99.90;;;;;;5052852;28;20065;-60
2023/01/17 05:00:16;;;;;;;7.03;0.40;;;2.30;99.90;;;;;;5052904;28;20099;-60
2023/01/17 05:02:41;;;;;;;5.72;1.55;;;2.30;99.90;;;;;;5052967;28;20040;-58
2023/01/17 05:05:07;;;;;;;2.00;0.60;;;2.20;99.90;;;;;;5052223;28;20039;-60
2023/01/17 05:07:33;;;;;;;4.35;0.22;;;2.20;99.90;;;;;;5052592;28;20044;-60
2023/01/17 05:09:59;;;;;;;2.63;0.30;;;2.20;99.90;;;;;;5052846;28;20039;-60
2023/01/17 05:12:25;;;;;;;4.05;0.30;;;2.20;99.90;;;;;;5052744;28;20047;-60
2023/01/17 05:14:51;;;;;;;8.48;1.10;;;2.10;99.90;;;;;;5051692;28;20045;-59
2023/01/17 05:17:17;;;;;;;4.27;0.30;;;2.10;99.90;;;;;;5052180;28;20052;-59
2023/01/17 05:19:43;;;;;;;5.17;0.30;;;2.10;99.90;;;;;;5052510;28;20593;-60
2023/01/17 05:22:15;;;;;;;4.57;0.98;;;2.10;99.90;;;;;;5052621;28;20126;-59
2023/01/17 05:24:41;;;;;;;4.60;0.30;;;2.10;99.90;;;;;;5050335;28;20045;-60
2023/01/17 05:27:07;;;;;;;8.57;1.33;;;2.00;99.90;;;;;;5051495;28;20045;-60
2023/01/17 05:29:33;;;;;;;8.90;0.60;;;2.00;99.90;;;;;;5052179;28;20438;-59
2023/01/17 05:31:58;;;;;;;4.43;0.97;;;2.00;99.90;;;;;;5052329;28;20036;-59
2023/01/17 05:34:24;;;;;;;2.43;0.93;;;2.00;99.90;;;;;;5051455;28;20457;-58
2023/01/17 05:36:49;;;;;;;4.87;0.40;;;2.00;99.90;;;;;;5051923;28;20052;-59
2023/01/17 05:39:15;;;;;;;4.90;0.53;;;1.90;99.90;;;;;;5052321;28;20390;-58
2023/01/17 05:41:40;;;;;;;9.20;0.50;;;1.90;99.90;;;;;;5052237;28;20306;-58
2023/01/17 05:44:06;;;;;;;5.10;0.60;;;1.90;99.90;;;;;;5050579;28;20498;-60
2023/01/17 05:46:32;;;;;;;8.23;0.60;;;1.90;99.90;;;;;;5051892;28;20044;-58
2023/01/17 05:48:57;;;;;;;4.40;0.37;;;1.90;99.90;;;;;;5051777;28;20036;-60
2023/01/17 05:51:23;;;;;;;10.15;0.60;;;1.90;99.90;;;;;;5051451;28;20094;-58
2023/01/17 05:53:49;;;;;;;6.60;0.60;;;1.90;99.90;;;;;;5050856;28;20041;-58
2023/01/17 05:56:14;;;;;;;3.27;0.30;;;1.90;99.90;;;;;;5051145;28;20041;-60
2023/01/17 05:58:40;;;;;;;5.40;0.70;;;1.90;99.90;;;;;;5050758;28;20041;-58
2023/01/17 06:01:05;;;;;;;4.90;0.87;;;1.90;99.90;;;;;;5051614;28;20115;-58
2023/01/17 06:03:31;;;;;;;6.67;0.60;;;1.90;99.90;;;;;;5050438;28;20556;-59
2023/01/17 06:05:56;;;;;;;5.40;1.00;;;1.90;99.90;;;;;;5048253;28;20051;-60
2023/01/17 06:08:22;;;;;;;5.30;0.40;;;1.90;99.90;;;;;;5031220;28;20041;-60
2023/01/17 06:10:48;;;;;;;6.50;0.60;;;1.80;99.90;;;;;;5039867;28;20043;-59
2023/01/17 06:13:19;;;;;;;5.22;1.25;;;1.80;99.90;;;;;;5050990;28;20513;-60
2023/01/17 06:15:45;;;;;;;4.18;0.50;;;1.80;99.90;;;;;;5051073;28;20477;-60
2023/01/17 06:18:14;;;;;;;8.07;0.77;;;1.70;99.90;;;;;;5051260;28;20037;-58
2023/01/17 06:20:40;;;;;;;7.25;1.25;;;1.70;99.90;;;;;;5051164;28;20092;-60
2023/01/17 06:23:09;;;;;;;9.85;0.80;;;1.70;99.90;;;;;;5047461;28;20033;-58
2023/01/17 06:25:43;;;;;;;6.63;0.52;;;1.70;99.90;;;;;;5051225;28;20033;-59
2023/01/17 06:28:09;;;;;;;7.05;0.60;;;1.70;99.90;;;;;;5050268;28;20414;-58
2023/01/17 06:30:35;;;;;;;;;;;1.70;99.90;;;;;;5051758;28;20040;-58
2023/01/17 06:33:01;;;;;;;5.80;0.95;;;1.80;99.90;;;;;;5049975;28;19917;-59
2023/01/17 06:35:27;;;;;;;4.90;0.75;;;1.70;99.90;;;;;;5050122;28;20037;-59
2023/01/17 06:37:54;;;;;;;8.77;0.70;;;1.80;99.90;;;;;;5035714;28;20100;-59
2023/01/17 06:40:21;;;;;;;5.72;0.82;;;1.80;99.90;;;;;;5031845;28;20183;-60
2023/01/17 06:42:47;;;;;;;6.45;1.10;;;1.80;99.90;;;;;;5050326;28;20048;-59
2023/01/17 06:45:12;;;;;;;4.78;0.73;;;1.80;99.90;;;;;;5050359;28;20059;-59
2023/01/17 06:47:39;;;;;;;8.27;1.50;;;1.80;99.90;;;;;;5050464;28;20489;-58
2023/01/17 06:50:07;;;;;;;4.65;0.90;;;1.80;99.90;;;;;;5048013;28;20135;-60
2023/01/17 06:52:32;;;;;;;2.17;0.45;;;1.80;99.90;;;;;;5050336;28;20048;-59
2023/01/17 06:54:58;;;;;;;5.00;0.80;;;1.80;99.90;;;;;;5047755;28;20544;-58
2023/01/17 06:57:23;;;;;;;7.23;0.40;;;1.80;99.90;;;;;;5049122;28;20033;-60
2023/01/17 06:59:49;;;;;;;3.43;0.40;;;1.80;99.90;;;;;;5048576;28;20107;-59
2023/01/17 07:02:15;;;;;;;3.83;0.40;;;1.80;99.90;;;;;;5049783;28;20520;-60
2023/01/17 07:04:40;;;;;;;7.53;0.70;;;1.80;99.90;;;;;;5049228;28;20048;-58
2023/01/17 07:07:06;;;;;;;7.07;0.93;;;1.80;99.90;;;;;;5050331;28;20051;-59
2023/01/17 07:09:31;;;;;;;3.10;0.50;;;1.80;99.90;;;;;;5050489;28;20068;-59
2023/01/17 07:12:00;;;;;;;5.10;0.57;;;1.80;99.90;;;;;;5050142;28;20055;-58
2023/01/17 07:14:27;;;;;;;6.72;0.70;;;1.80;99.90;;;;;;5049577;28;20072;-59
2023/01/17 07:16:53;;;;;;;6.53;0.68;;;1.80;99.90;;;;;;5049990;28;20083;-59
2023/01/17 07:19:18;;;;;;;2.28;0.30;;;1.70;99.90;;;;;;5050103;28;20433;-59
2023/01/17 07:21:44;;;;;;;7.40;1.40;;;1.70;99.90;;;;;;5049974;28;20075;-58
2023/01/17 07:24:09;;;;;;;9.33;0.60;;;1.70;99.90;;;;;;5048724;28;20293;-59
2023/01/17 07:26:39;;;;;;;5.37;0.50;;;1.80;99.90;;;;;;5049804;28;20107;-59
2023/01/17 07:29:05;;;;;;;6.40;0.63;;;1.70;99.90;;;;;;5049362;28;20048;-59
2023/01/17 07:31:36;;;;;;;4.00;0.30;;;1.70;99.90;;;;;;5049920;28;20037;-59
2023/01/17 07:34:02;;;;;;;5.25;0.75;;;1.70;99.90;;;;;;5047201;28;20405;-59
2023/01/17 07:36:28;;;;;;;7.88;1.55;;;1.70;99.90;;;;;;5049659;28;20486;-59
2023/01/17 07:38:54;;;;;;;6.33;0.67;;;1.70;99.90;;;;;;5048881;28;20120;-59
2023/01/17 07:41:21;;;;;;;0.77;0.32;;;1.60;99.90;;;;;;5049857;28;20036;-60
2023/01/17 07:43:46;;;;;;;4.05;0.32;;;1.70;99.90;;;;;;5048543;28;20049;-58
2023/01/17 07:46:14;;;;;;;4.20;1.07;;;1.60;99.90;;;;;;5048789;28;20394;-58
2023/01/17 07:48:40;;;;;;;6.55;0.80;;;1.60;99.90;;;;;;5049054;28;20526;-62
2023/01/17 07:51:07;;;;;;;1.60;0.40;;;1.70;99.90;;;;;;5049129;28;20041;-59
2023/01/17 07:53:33;;;;;;;2.92;0.40;;;1.70;99.90;;;;;;5047728;28;20048;-61
2023/01/17 07:56:04;;;;;;;5.47;0.70;;;1.80;99.90;;;;;;5049100;28;20033;-61
2023/01/17 07:58:31;;;;;;;2.92;0.50;;;1.90;99.90;;;;;;5048920;28;20080;-61
2023/01/17 08:01:11;;;;;;;4.35;1.05;;;2.10;99.90;;;;;;5046147;28;20056;-61
2023/01/17 08:03:40;;;;;;;4.63;0.90;;;2.20;99.90;;;;;;5030539;28;20927;-61
2023/01/17 08:06:14;;;;;;;2.72;0.45;;;2.30;99.90;;;;;;5034235;28;20045;-61
2023/01/17 08:08:40;;;;;;;6.22;1.42;;;2.40;99.90;;;;;;5049181;28;20041;-61
2023/01/17 08:11:05;;;;;;;5.40;0.80;;;2.60;99.90;;;;;;5049700;28;20409;-61
2023/01/17 08:13:31;;;;;;;3.77;0.50;;;2.80;99.90;;;;;;5048651;28;20041;-61
2023/01/17 08:15:56;;;;;;;6.37;1.17;;;2.90;99.90;;;;;;5049526;28;20090;-61
2023/01/17 08:18:22;;;;;;;7.93;1.47;;;2.70;99.90;;;;;;5048512;28;20029;-61
2023/01/17 08:20:48;;;;;;;4.97;1.13;;;2.60;99.90;;;;;;5049524;28;20043;-61
2023/01/17 08:23:14;;;;;;;2.90;0.70;;;2.50;99.90;;;;;;5048209;28;20460;-61
2023/01/17 08:25:39;;;;;;;6.35;1.23;;;2.50;99.90;;;;;;5048997;28;20048;-61
2023/01/17 08:28:05;;;;;;;4.03;1.43;;;2.60;99.90;;;;;;5049292;28;20033;-61
2023/01/17 08:30:30;;;;;;;3.40;0.70;;;2.50;99.90;;;;;;5048767;28;20048;-61
2023/01/17 08:32:56;;;;;;;3.00;0.60;;;2.60;99.90;;;;;;5047967;28;20425;-61
2023/01/17 08:35:22;;;;;;;1.93;0.53;;;3.10;99.90;;;;;;5048663;28;20049;-61
2023/01/17 08:37:53;;;;;;;3.33;0.77;;;4.10;99.90;;;;;;5048870;28;20572;-61
2023/01/17 08:40:18;;;;;;;4.15;0.50;;;5.10;99.90;;;;;;5048645;28;20462;-61
2023/01/17 08:42:52;;;;;;;2.83;1.10;;;5.50;99.90;;;;;;5049133;28;20442;-62
2023/01/17 08:45:17;;;;;;;6.72;0.50;;;5.40;99.90;;;;;;5035533;28;20283;-62
2023/01/17 08:47:43;;;;;;;1.87;0.50;;;5.10;99.90;;;;;;5047058;28;20095;-62
2023/01/17 08:50:09;;;;;;;3.80;0.40;;;5.20;99.90;;;;;;5047178;28;20044;-61
2023/01/17 08:52:35;;;;;;;4.60;0.50;;;5.10;99.90;;;;;;5047546;28;20052;-61
2023/01/17 08:55:01;;;;;;;7.10;0.47;;;5.20;99.90;;;;;;5043529;28;20041;-61
2023/01/17 08:57:26;;;;;;;5.43;1.20;;;5.90;99.90;;;;;;5045927;28;20061;-62
2023/01/17 08:59:52;;;;;;;4.13;0.45;;;6.80;99.90;;;;;;5047998;28;20119;-61
2023/01/17 09:02:19;;;;;;;4.27;0.77;;;7.60;99.90;;;;;;5050395;28;20033;-62
2023/01/17 09:04:45;;;;;;;3.28;0.40;;;8.70;99.90;;;;;;5050869;28;20041;-62
2023/01/17 09:07:11;;;;;;;1.38;0.47;;;9.60;99.90;;;;;;5052714;28;20033;-60
2023/01/17 09:09:37;;;;;;;2.15;0.65;;;10.20;99.90;;;;;;5052764;28;20452;-60
2023/01/17 09:12:03;;;;;;;1.93;0.47;;;10.80;99.90;;;;;;5053216;28;20041;-60
2023/01/17 09:14:28;;;;;;;3.95;0.90;;;11.20;99.90;;;;;;5051465;28;20292;-60
2023/01/17 09:16:54;;;;;;;3.05;0.50;;;11.70;99.90;;;;;;5051955;28;20334;-60
2023/01/17 09:19:20;;;;;;;3.05;0.43;;;12.30;99.90;;;;;;5053025;28;20045;-60
2023/01/17 09:21:45;;;;;;;9.25;1.35;;;12.70;99.90;;;;;;5052663;28;20328;-60
2023/01/17 09:24:11;;;;;;;2.75;0.95;;;13.10;99.90;;;;;;5051828;28;20049;-60
2023/01/17 09:26:37;;;;;;;2.05;0.65;;;13.50;99.70;;;;;;5052342;28;20126;-60
2023/01/17 09:29:03;;;;;;;;;;;13.80;99.60;;;;;;5052489;28;20048;-60
2023/01/17 09:31:28;;;;;;;3.42;0.50;;;14.20;94.70;;;;;;5051908;28;19975;-60
2023/01/17 09:33:56;;;;;;;3.40;0.70;;;14.50;98.30;;;;;;5051707;28;20033;-60
2023/01/17 09:36:22;;;;;;;5.43;0.70;;;14.70;93.60;;;;;;5052368;28;20073;-59
2023/01/17 09:38:48;;;;;;;5.78;0.45;;;14.40;90.50;;;;;;5050742;28;20045;-60
2023/01/17 09:41:28;;;;;;;5.75;0.60;;;14.50;91.00;;;;;;5051948;28;20498;-59
2023/01/17 09:43:59;;;;;;;5.43;0.60;;;14.50;87.90;;;;;;5050810;28;20434;-59
2023/01/17 09:46:29;;;;;;;2.38;0.40;;;14.70;89.00;;;;;;5052119;28;20391;-58
2023/01/17 09:49:11;;;;;;;2.85;0.50;;;15.10;90.10;;;;;;5050694;28;20084;-60
2023/01/17 09:51:38;;;;;;;3.85;0.70;;;15.30;87.80;;;;;;5051970;28;20123;-60
2023/01/17 09:54:04;;;;;;;4.90;0.68;;;15.50;83.00;;;;;;5049585;28;20091;-59
2023/01/17 09:56:42;;;;;;;4.47;0.63;;;15.50;79.00;;;;;;5052053;28;20043;-60
2023/01/17 09:59:27;;;;;;;3.92;0.50;;;15.70;78.80;;;;;;5051892;28;20473;-59
2023/01/17 10:02:26;;;;;;;1.75;0.63;;;15.90;82.50;;;;;;5051996;28;20414;-60
2023/01/17 10:05:15;;;;;;;3.72;0.88;;;15.70;73.70;;;;;;5050627;28;20044;-59
2023/01/17 10:08:06;;;;;;;3.97;0.82;;;14.70;74.00;;;;;;5050859;28;20049;-60
2023/01/17 10:10:54;;;;;;;4.30;0.82;;;13.70;75.70;;;;;;5050586;28;20049;-59
2023/01/17 10:13:38;;;;;;;4.63;0.70;;;13.20;77.90;;;;;;5049749;28;20049;-59
2023/01/17 10:16:23;;;;;;;2.95;0.55;;;13.70;81.50;;;;;;5050429;28;20041;-59
2023/01/17 10:19:26;;;;;;;3.33;0.77;;;14.20;78.30;;;;;;5050988;28;20041;-59
2023/01/17 10:21:58;;;;;;;5.05;1.00;;;15.00;79.80;;;;;;5050134;28;20049;-59
2023/01/17 10:24:50;;;;;;;7.07;0.50;;;15.60;79.90;;;;;;5050100;28;20615;-59
2023/01/17 10:27:24;;;;;;;2.05;0.50;;;15.90;75.30;;;;;;5051001;28;20511;-59
2023/01/17 10:29:50;;;;;;;5.15;0.82;;;16.30;75.40;;;;;;5050643;28;20041;-59
2023/01/17 10:32:15;;;;;;;4.70;1.00;;;16.50;72.60;;;;;;5051192;28;20231;-59
2023/01/17 10:34:51;;;;;;;8.60;1.07;;;16.30;74.30;;;;;;5050083;28;20123;-60
2023/01/17 10:37:39;;;;;;;3.13;0.73;;;15.90;70.10;;;;;;5050892;28;20106;-59
2023/01/17 10:40:14;;;;;;;4.32;0.70;;;15.10;71.60;;;;;;5050259;28;20268;-59
2023/01/17 10:42:51;;;;;;;5.13;0.90;;;14.10;72.70;;;;;;5051377;28;20123;-59
2023/01/17 10:45:29;;;;;;;2.47;0.80;;;13.90;75.70;;;;;;5050490;28;20224;-59
2023/01/17 10:48:36;;;;;;;3.25;0.60;;;14.10;74.00;;;;;;5050838;28;20045;-59
2023/01/17 10:51:10;;;;;;;5.53;0.70;;;14.70;74.20;;;;;;5050693;28;20391;-59
2023/01/17 10:53:44;;;;;;;1.88;0.70;;;15.30;72.40;;;;;;5048214;28;20507;-59
2023/01/17 10:56:14;;;;;;;5.93;0.82;;;15.70;71.80;;;;;;5047903;28;20037;-59
2023/01/17 10:58:40;;;;;;;4.47;0.90;;;15.80;69.90;;;;;;5045881;28;20037;-59
2023/01/17 11:01:19;;;;;;;6.50;0.90;;;15.90;68.40;;;;;;5047493;28;20097;-59
2023/01/17 11:03:49;;;;;;;4.78;1.20;;;16.10;69.30;;;;;;5044523;28;20418;-59
2023/01/17 11:06:18;;;;;;;4.20;0.50;;;16.10;66.80;;;;;;5048277;28;20044;-59
2023/01/17 11:08:58;;;;;;;2.58;0.63;;;15.90;66.90;;;;;;5044944;28;20052;-59
2023/01/17 11:11:30;;;;;;;7.25;1.27;;;15.90;68.70;;;;;;5046455;28;20037;-61
2023/01/17 11:14:04;;;;;;;3.80;1.17;;;15.90;66.80;;;;;;5047255;28;20044;-61
2023/01/17 11:16:30;;;;;;;7.30;1.35;;;15.50;66.90;;;;;;5046411;28;20060;-61
2023/01/17 11:19:27;;;;;;;4.18;1.00;;;14.80;68.00;;;;;;5047111;28;20029;-61
2023/01/17 11:21:57;;;;;;;7.53;1.65;;;14.10;68.90;;;;;;5046235;28;20047;-60
2023/01/17 11:24:37;;;;;;;10.63;1.60;;;13.70;72.30;;;;;;5043543;28;20061;-61
2023/01/17 11:27:05;;;;;;;6.00;0.75;;;13.80;72.00;;;;;;5047134;28;20040;-61
2023/01/17 11:29:36;;;;;;;6.28;1.30;;;13.80;72.40;;;;;;5046709;28;20604;-61
2023/01/17 11:32:37;;;;;;;5.63;0.70;;;13.90;70.40;;;;;;5046447;28;20031;-61
2023/01/17 11:35:08;;;;;;;6.07;0.70;;;14.70;70.50;;;;;;5021983;28;20047;-61
2023/01/17 11:37:35;;;;;;;6.32;0.80;;;15.30;70.80;;;;;;5044385;28;20049;-61
2023/01/17 11:40:27;;;;;;;2.35;0.50;;;15.70;68.80;;;;;;5046300;28;20040;-59
2023/01/17 11:43:18;;;;;;;4.68;1.05;;;15.80;66.90;;;;;;5048269;28;20072;-59
2023/01/17 11:45:46;;;;;;;3.53;0.68;;;16.20;66.70;;;;;;5048338;28;20103;-59
2023/01/17 11:48:16;;;;;;;3.45;0.70;;;16.40;67.50;;;;;;5048470;28;20029;-59
2023/01/17 11:50:58;;;;;;;4.82;0.82;;;16.60;66.20;;;;;;5047491;28;20434;-59
2023/01/17 11:53:27;;;;;;;2.17;0.60;;;16.30;64.70;;;;;;5046297;28;20387;-59
2023/01/17 11:56:10;;;;;;;4.95;0.70;;;16.20;64.80;;;;;;5046611;28;20063;-58
2023/01/17 11:58:40;;;;;;;3.90;0.40;;;15.90;62.60;;;;;;5048037;28;20068;-59
2023/01/17 12:01:30;;;;;;;2.70;0.63;;;15.80;63.40;;;;;;5047696;28;20044;-58
2023/01/17 12:04:23;;;;;;;8.73;1.30;;;15.50;64.10;;;;;;5046661;28;20039;-58
2023/01/17 12:07:01;;;;;;;4.70;0.70;;;15.70;63.30;;;;;;5046982;28;20078;-58
2023/01/17 12:09:55;;;;;;;1.30;0.52;;;16.10;63.20;;;;;;5048275;28;20049;-58
2023/01/17 12:15:19;;;;;;;5.82;1.42;;;16.90;63.00;;;;;;5044626;28;20040;-59
2023/01/17 12:18:08;;;;;;;3.72;0.50;;;17.50;63.10;;;;;;5044864;28;20064;-59
2023/01/17 12:21:11;;;;;;;5.20;0.65;;;17.60;60.60;;;;;;5047789;28;20041;-59
2023/01/17 12:23:54;;;;;;;3.50;0.80;;;18.00;60.70;;;;;;5042905;28;20164;-59
2023/01/17 12:26:43;;;;;;;5.03;0.45;;;18.00;58.60;;;;;;5047436;28;20040;-59
2023/01/17 12:29:25;;;;;;;3.30;1.15;;;18.20;60.60;;;;;;5047221;28;20513;-59
2023/01/17 12:31:57;;;;;;;1.60;0.40;;;18.60;58.90;;;;;;5047602;28;20443;-59
2023/01/17 12:34:33;;;;;;;3.08;0.40;;;18.70;59.30;;;;;;5045537;28;20060;-59
2023/01/17 12:37:16;;;;;;;6.35;0.50;;;18.70;58.80;;;;;;5048970;28;20461;-59
2023/01/17 12:39:50;;;;;;;3.10;0.93;;;18.80;59.10;;;;;;5048834;28;20102;-59
2023/01/17 12:42:29;;;;;;;5.50;0.68;;;19.20;59.20;;;;;;5051196;28;20103;-59
2023/01/17 12:45:06;;;;;;;4.72;0.47;;;19.90;55.70;;;;;;5050477;28;20037;-59
2023/01/17 12:47:36;;;;;;;2.45;0.35;;;20.20;56.80;;;;;;5047607;28;20044;-59
2023/01/17 12:50:23;;;;;;;5.88;0.63;;;20.10;55.80;;;;;;5051354;28;20112;-60
2023/01/17 12:53:21;;;;;;;1.75;0.30;;;20.10;54.70;;;;;;5050630;28;20091;-59
2023/01/17 12:55:59;;;;;;;2.58;0.40;;;19.80;55.50;;;;;;5051349;28;20045;-59
2023/01/17 12:58:28;;;;;;;4.15;0.30;;;20.00;55.80;;;;;;5050792;28;20040;-59
2023/01/17 13:01:05;;;;;;;1.25;0.38;;;19.90;54.50;;;;;;5050474;28;20041;-58
2023/01/17 13:03:58;;;;;;;3.60;0.50;;;19.90;55.10;;;;;;5050174;28;20029;-59
2023/01/17 13:06:46;;;;;;;3.80;0.45;;;19.80;53.00;;;;;;5051347;28;20033;-59
2023/01/17 13:09:18;;;;;;;4.13;0.40;;;19.60;52.90;;;;;;5050707;28;20033;-58
2023/01/17 13:12:00;;;;;;;5.07;0.55;;;20.00;54.50;;;;;;5050085;28;20074;-58
2023/01/17 13:14:26;;;;;;;3.80;0.57;;;20.10;53.80;;;;;;5049599;28;20049;-59
2023/01/17 13:17:24;;;;;;;3.92;0.38;;;20.20;55.30;;;;;;5051089;28;20051;-57
2023/01/17 13:19:57;;;;;;;3.88;0.85;;;20.10;52.80;;;;;;5049146;28;20045;-58
2023/01/17 13:22:25;;;;;;;2.85;0.68;;;19.90;52.80;;;;;;5048039;28;20455;-59
2023/01/17 13:25:35;;;;;;;6.50;0.80;;;19.60;53.30;;;;;;5049387;28;20041;-58
2023/01/17 13:28:36;;;;;;;2.88;0.40;;;19.60;53.00;;;;;;5047508;28;20565;-59
2023/01/17 13:31:27;;;;;;;4.78;0.82;;;19.40;53.00;;;;;;5049330;28;20387;-60
2023/01/17 13:34:12;;;;;;;3.58;0.60;;;19.10;54.60;;;;;;5049680;28;20033;-57
2023/01/17 13:37:18;;;;;;;5.47;0.90;;;18.60;54.00;;;;;;5049444;28;20037;-59
2023/01/17 13:39:52;;;;;;;2.25;0.32;;;18.60;53.90;;;;;;5049811;28;20104;-59
2023/01/17 13:42:36;;;;;;;3.28;0.40;;;18.60;53.90;;;;;;5050541;28;20510;-57
2023/01/17 13:45:07;;;;;;;4.93;0.60;;;18.00;53.50;;;;;;5049499;28;20098;-58
2023/01/17 13:47:39;;;;;;;4.80;0.55;;;17.80;55.00;;;;;;5049020;28;20044;-57
2023/01/17 13:50:30;;;;;;;4.80;0.47;;;17.80;54.30;;;;;;5050610;28;20394;-58
2023/01/17 13:52:56;;;;;;;2.22;0.40;;;18.00;54.90;;;;;;5046825;28;20076;-59
2023/01/17 13:55:41;;;;;;;;;;;17.90;54.80;;;;;;5050581;28;20041;-57
2023/01/17 13:58:56;;;;;;;3.03;0.47;;;17.90;53.70;;;;;;5049742;28;19917;-60
2023/01/17 14:01:22;;;;;;;4.03;0.30;;;17.70;53.10;;;;;;5050052;28;20045;-60
2023/01/17 14:03:53;;;;;;;2.85;0.30;;;17.60;54.60;;;;;;5048847;28;20029;-59
2023/01/17 14:06:40;;;;;;;2.20;0.30;;;17.50;55.40;;;;;;5049991;28;20102;-58
2023/01/17 14:09:19;;;;;;;4.50;0.43;;;17.20;54.30;;;;;;5050120;28;20068;-57
2023/01/17 14:11:58;;;;;;;2.03;0.30;;;16.20;54.20;;;;;;5049186;28;20086;-57
2023/01/17 14:14:39;;;;;;;4.50;0.22;;;15.00;55.80;;;;;;5049060;28;20044;-59
2023/01/17 14:17:21;;;;;;;3.05;0.43;;;13.80;56.10;;;;;;5047629;28;20043;-57
2023/01/17 14:19:51;;;;;;;4.13;0.60;;;12.90;57.80;;;;;;5047439;28;20036;-56
2023/01/17 14:22:20;;;;;;;4.90;0.32;;;12.80;60.40;;;;;;5048843;28;20425;-57
2023/01/17 14:25:08;;;;;;;2.60;0.30;;;13.50;61.90;;;;;;5047634;28;20052;-59
2023/01/17 14:27:41;;;;;;;3.15;0.35;;;14.10;59.80;;;;;;5049510;28;20037;-59
2023/01/17 14:30:24;;;;;;;1.50;0.63;;;14.40;59.40;;;;;;5049006;28;20040;-60
2023/01/17 14:33:07;;;;;;;7.57;0.80;;;13.90;58.10;;;;;;5049602;28;20118;-60
2023/01/17 14:35:38;;;;;;;4.50;0.80;;;13.50;59.40;;;;;;5049062;28;20117;-59
2023/01/17 14:38:22;;;;;;;1.17;0.30;;;13.00;60.00;;;;;;5049334;28;20045;-56
2023/01/17 14:40:54;;;;;;;3.15;0.60;;;12.70;59.70;;;;;;5048522;28;20029;-58
2023/01/17 14:43:23;;;;;;;6.07;0.70;;;12.20;59.80;;;;;;5045506;28;20044;-57
2023/01/17 14:46:00;;;;;;;5.25;0.52;;;11.90;61.20;;;;;;5045109;28;20039;-59